< < Back
Terminal Aerodrome Forecast


Current Version              Previous Versions:   1  2  3  4  5  6  7  8  9  

Terminal Aerodrome Forecast

910
FTUS44 KMRX 161314 AAA
TAFCHA
TAF AMD
KCHA 161314Z 1613/1712 00000KT 1/2SM FG VV003
      TEMPO 1613/1614 1SM BR OVC006
     FM161430 30004KT 5SM BR BKN009 OVC025
     FM161600 32006KT P6SM BKN035
     FM162000 30007KT P6SM BKN050
     FM170100 34005KT P6SM SCT120 BKN250=



Latest METAR

629
SAUS80 KWBC 161700 RRA
MTRCHA
METAR KCHA 161653Z 00000KT 10SM BKN032 BKN110 BKN250 27/18 A3009 RMK AO2
SLP181 T02670183


USA.gov is the U.S. government's official web portal to all federal, state and local government web resources and services.